createdAt,value
2022-12-03T00:02:07.618Z,19.05
2022-12-03T00:05:17.016Z,19.90
2022-12-03T00:08:25.913Z,18.13
2022-12-03T00:11:31.778Z,18.10
2022-12-03T00:14:41.261Z,20.00
2022-12-03T00:17:49.903Z,18.35
2022-12-03T00:20:57.485Z,18.60
2022-12-03T00:24:02.898Z,16.90
2022-12-03T00:27:08.151Z,17.75
2022-12-03T00:30:14.844Z,15.25
2022-12-03T00:33:19.738Z,16.48
2022-12-03T00:36:27.685Z,17.05
2022-12-03T00:39:35.237Z,17.20
2022-12-03T00:42:42.484Z,16.85
2022-12-03T00:45:49.613Z,17.77
2022-12-03T00:48:56.500Z,20.35
2022-12-03T00:52:05.334Z,23.23
2022-12-03T00:55:11.060Z,20.10
2022-12-03T00:58:16.284Z,23.70
2022-12-03T01:01:22.791Z,16.98
2022-12-03T01:04:29.655Z,16.85
2022-12-03T01:07:39.629Z,19.70
2022-12-03T01:10:45.634Z,15.43
2022-12-03T01:13:51.474Z,16.27
2022-12-03T01:16:59.625Z,15.43
2022-12-03T01:20:05.224Z,14.82
2022-12-03T01:23:14.271Z,14.73
2022-12-03T01:26:19.615Z,15.02
2022-12-03T01:29:25.212Z,13.60
2022-12-03T01:32:28.033Z,32.55
2022-12-03T01:35:33.131Z,15.85
2022-12-03T01:38:42.743Z,14.25
2022-12-03T01:41:51.143Z,13.73
2022-12-03T01:44:57.700Z,13.40
2022-12-03T01:48:02.668Z,14.32
2022-12-03T01:51:13.937Z,12.70
2022-12-03T01:54:23.924Z,12.48
2022-12-03T01:57:31.396Z,11.68
2022-12-03T02:00:36.434Z,18.30
2022-12-03T02:03:43.300Z,14.05
2022-12-03T02:06:48.846Z,12.63
2022-12-03T02:10:02.331Z,12.30
2022-12-03T02:13:09.653Z,11.32
2022-12-03T02:16:15.363Z,11.30
2022-12-03T02:19:24.308Z,12.63
2022-12-03T02:22:34.737Z,10.55
2022-12-03T02:25:42.353Z,10.68
2022-12-03T02:28:53.304Z,11.20
2022-12-03T02:32:00.543Z,13.43
2022-12-03T02:35:06.196Z,14.75
2022-12-03T02:38:13.544Z,15.23
2022-12-03T02:41:35.756Z,12.80
2022-12-03T02:44:40.916Z,12.02
2022-12-03T02:47:48.885Z,10.88
2022-12-03T02:50:57.548Z,10.98
2022-12-03T02:54:03.365Z,11.18
2022-12-03T02:57:11.165Z,9.40
2022-12-03T03:00:25.943Z,10.80
2022-12-03T03:03:34.917Z,11.23
2022-12-03T03:06:42.968Z,12.68
2022-12-03T03:09:48.383Z,10.93
2022-12-03T03:12:59.846Z,9.32
2022-12-03T03:19:16.581Z,8.60
2022-12-03T03:22:21.695Z,8.82
2022-12-03T03:25:32.708Z,9.30
2022-12-03T03:28:41.775Z,8.32
2022-12-03T03:31:48.831Z,9.75
2022-12-03T03:34:54.028Z,9.70
2022-12-03T03:38:00.119Z,10.75
2022-12-03T03:41:06.751Z,10.30
2022-12-03T03:44:16.588Z,9.30
2022-12-03T03:47:24.671Z,9.43
2022-12-03T03:50:36.577Z,10.20
2022-12-03T03:53:44.793Z,10.13
2022-12-03T03:56:52.910Z,9.32
2022-12-03T04:00:02.028Z,7.97
2022-12-03T04:03:08.768Z,9.00
2022-12-03T04:06:16.629Z,10.07
2022-12-03T04:09:24.395Z,10.27
2022-12-03T04:12:44.006Z,9.95
2022-12-03T04:15:53.667Z,10.02
2022-12-03T04:18:58.991Z,10.45
2022-12-03T04:22:16.922Z,9.70
2022-12-03T04:25:34.145Z,9.82
2022-12-03T04:28:52.116Z,8.57
2022-12-03T04:32:12.017Z,8.82
2022-12-03T04:35:30.121Z,9.27
2022-12-03T04:38:35.428Z,10.38
2022-12-03T04:41:41.094Z,8.77
2022-12-03T04:44:47.784Z,10.25
2022-12-03T04:47:55.981Z,10.70
2022-12-03T04:51:00.872Z,12.40
2022-12-03T04:54:07.710Z,10.80
2022-12-03T04:57:12.962Z,9.43
2022-12-03T05:00:18.985Z,9.63
2022-12-03T05:03:27.395Z,10.05
2022-12-03T05:06:34.946Z,9.50
2022-12-03T05:09:39.872Z,10.43
2022-12-03T05:12:45.286Z,10.02
2022-12-03T05:15:55.349Z,11.18
2022-12-03T05:19:03.978Z,11.18
2022-12-03T05:22:11.731Z,8.63
2022-12-03T05:25:17.042Z,9.82
2022-12-03T05:28:23.261Z,12.07
2022-12-03T05:31:29.344Z,9.80
2022-12-03T05:34:41.560Z,10.88
2022-12-03T05:37:48.908Z,10.55
2022-12-03T05:40:54.513Z,11.05
2022-12-03T05:44:04.840Z,11.05
2022-12-03T05:47:09.942Z,9.70
2022-12-03T05:50:18.384Z,9.30
2022-12-03T05:53:30.386Z,9.82
2022-12-03T05:56:35.671Z,9.40
2022-12-03T05:59:43.514Z,10.15
2022-12-03T06:02:53.786Z,10.07
2022-12-03T06:06:01.592Z,11.35
2022-12-03T06:09:07.020Z,10.48
2022-12-03T06:12:12.577Z,9.38
2022-12-03T06:15:18.165Z,8.90
2022-12-03T06:18:23.086Z,8.82
2022-12-03T06:21:31.923Z,9.35
2022-12-03T06:24:37.290Z,8.55
2022-12-03T06:27:43.013Z,7.78
2022-12-03T06:30:50.670Z,8.80
2022-12-03T06:33:57.837Z,9.20
2022-12-03T06:37:08.068Z,8.93
2022-12-03T06:40:15.407Z,6.50
2022-12-03T06:43:20.397Z,10.73
2022-12-03T06:46:31.662Z,10.43
2022-12-03T06:49:37.010Z,10.68
2022-12-03T06:52:48.687Z,10.38
2022-12-03T06:55:53.942Z,9.68
2022-12-03T06:59:00.345Z,8.93
2022-12-03T07:02:05.601Z,10.45
2022-12-03T07:05:11.138Z,11.27
2022-12-03T07:08:21.210Z,11.65
2022-12-03T07:11:40.739Z,10.73
2022-12-03T07:14:47.592Z,10.70
2022-12-03T07:17:54.563Z,9.98
2022-12-03T07:20:59.812Z,11.25
2022-12-03T07:24:08.397Z,10.13
2022-12-03T07:27:14.564Z,9.52
2022-12-03T07:30:20.560Z,10.77
2022-12-03T07:33:27.130Z,12.70
2022-12-03T07:36:33.485Z,11.07
2022-12-03T07:39:41.728Z,10.95
2022-12-03T07:42:49.130Z,11.82
2022-12-03T07:45:54.421Z,11.18
2022-12-03T07:49:06.162Z,11.45
2022-12-03T07:52:28.288Z,11.70
2022-12-03T07:55:41.101Z,10.65
2022-12-03T07:58:47.206Z,11.55
2022-12-03T08:01:52.629Z,12.23
2022-12-03T08:04:58.645Z,11.65
2022-12-03T08:08:07.021Z,12.18
2022-12-03T08:11:20.150Z,12.07
2022-12-03T08:14:29.627Z,10.95
2022-12-03T08:17:37.748Z,11.48
2022-12-03T08:20:45.548Z,12.80
2022-12-03T08:23:53.237Z,13.52
2022-12-03T08:27:05.857Z,12.90
2022-12-03T08:30:11.866Z,13.15
2022-12-03T08:33:21.771Z,13.23
2022-12-03T08:36:30.865Z,14.13
2022-12-03T08:39:37.990Z,13.25
2022-12-03T08:42:51.752Z,20.88
2022-12-03T08:46:04.518Z,12.85
2022-12-03T08:49:11.435Z,11.35
2022-12-03T08:52:22.014Z,15.13
2022-12-03T08:55:38.618Z,14.75
2022-12-03T08:58:49.317Z,16.40
2022-12-03T09:01:55.574Z,13.85
2022-12-03T09:05:01.351Z,15.70
2022-12-03T09:08:08.742Z,15.93
2022-12-03T09:11:14.452Z,18.55
2022-12-03T09:14:24.073Z,20.38
2022-12-03T09:17:29.656Z,18.08
2022-12-03T09:20:49.397Z,18.00
2022-12-03T09:23:56.378Z,15.23
2022-12-03T09:27:01.320Z,17.45
2022-12-03T09:30:11.358Z,16.90
2022-12-03T09:33:18.464Z,15.10
2022-12-03T09:36:24.001Z,15.23
2022-12-03T09:39:29.244Z,15.05
2022-12-03T09:42:34.595Z,16.48
2022-12-03T09:45:43.768Z,14.77
2022-12-03T09:48:49.467Z,15.80
2022-12-03T09:51:54.826Z,16.65
2022-12-03T09:55:02.055Z,16.70
2022-12-03T09:58:12.853Z,16.92
2022-12-03T10:01:20.969Z,17.13
2022-12-03T10:04:27.154Z,17.73
2022-12-03T10:07:34.014Z,17.13
2022-12-03T10:10:40.086Z,13.98
2022-12-03T10:13:46.324Z,17.17
2022-12-03T10:16:54.313Z,17.20
2022-12-03T10:20:04.386Z,17.75
2022-12-03T10:23:09.557Z,19.20
2022-12-03T10:26:19.801Z,16.63
2022-12-03T10:29:29.929Z,27.48
2022-12-03T10:32:47.298Z,19.75
2022-12-03T10:35:52.434Z,20.27
2022-12-03T10:39:12.828Z,25.13
2022-12-03T10:42:18.612Z,18.40
2022-12-03T10:45:26.658Z,20.85
2022-12-03T10:48:34.316Z,19.00
2022-12-03T10:51:40.349Z,17.60
2022-12-03T10:54:46.934Z,17.50
2022-12-03T10:57:56.694Z,15.00
2022-12-03T11:01:05.089Z,16.23
2022-12-03T11:04:21.364Z,17.45
2022-12-03T11:07:26.829Z,16.25
2022-12-03T11:10:32.576Z,17.25
2022-12-03T11:13:55.409Z,17.63
2022-12-03T11:17:13.335Z,17.90
2022-12-03T11:20:33.344Z,18.88
2022-12-03T11:23:53.758Z,17.63
2022-12-03T11:27:28.610Z,16.60
2022-12-03T11:30:49.506Z,16.02
2022-12-03T11:34:17.500Z,20.60
2022-12-03T11:37:30.204Z,20.52
2022-12-03T11:40:39.556Z,22.63
2022-12-03T11:44:00.494Z,26.52
2022-12-03T11:47:15.159Z,20.70
2022-12-03T11:50:26.481Z,17.42
2022-12-03T11:53:34.513Z,14.55
2022-12-03T11:56:47.665Z,16.15
2022-12-03T12:00:02.716Z,15.77
2022-12-03T12:03:24.276Z,15.75
2022-12-03T12:06:43.045Z,15.60
2022-12-03T12:09:55.529Z,15.10
2022-12-03T12:13:01.101Z,14.98
2022-12-03T12:16:10.144Z,15.52
2022-12-03T12:19:31.384Z,15.45
2022-12-03T12:22:40.023Z,15.10
2022-12-03T12:25:53.808Z,16.27
2022-12-03T12:29:05.171Z,12.70
2022-12-03T12:32:15.860Z,16.15
2022-12-03T12:35:24.395Z,17.08
2022-12-03T12:38:33.614Z,17.88
2022-12-03T12:41:41.333Z,17.08
2022-12-03T12:44:51.003Z,15.80
2022-12-03T12:48:01.762Z,15.98
2022-12-03T12:51:13.789Z,16.05
2022-12-03T12:54:22.084Z,15.57
2022-12-03T12:57:28.830Z,16.65
2022-12-03T13:00:41.051Z,17.00
2022-12-03T13:03:49.589Z,18.45
2022-12-03T13:06:56.857Z,16.90
2022-12-03T13:10:10.447Z,17.42
2022-12-03T13:13:28.634Z,15.90
2022-12-03T13:16:35.757Z,15.93
2022-12-03T13:19:49.444Z,15.95
2022-12-03T13:22:57.416Z,16.98
2022-12-03T13:26:30.375Z,16.40
2022-12-03T13:29:40.781Z,17.83
2022-12-03T13:32:46.511Z,14.10
2022-12-03T13:35:54.742Z,17.33
2022-12-03T13:39:03.221Z,16.77
2022-12-03T13:42:30.665Z,14.70
2022-12-03T13:45:41.329Z,13.88
2022-12-03T13:48:47.726Z,15.57
2022-12-03T13:51:57.356Z,14.93
2022-12-03T13:55:05.608Z,13.57
2022-12-03T13:58:14.522Z,13.88
2022-12-03T14:01:19.480Z,15.65
2022-12-03T14:04:26.388Z,14.48
2022-12-03T14:07:35.151Z,14.82
2022-12-03T14:10:43.635Z,15.95
2022-12-03T14:13:54.784Z,16.20
2022-12-03T14:17:00.917Z,14.70
2022-12-03T14:20:07.148Z,15.55
2022-12-03T14:23:12.859Z,15.48
2022-12-03T14:26:18.208Z,13.10
2022-12-03T14:29:28.774Z,15.07
2022-12-03T14:32:34.099Z,16.98
2022-12-03T14:35:45.604Z,14.95
2022-12-03T14:38:52.006Z,14.43
2022-12-03T14:42:10.043Z,14.73
2022-12-03T14:45:17.782Z,12.77
2022-12-03T14:48:32.342Z,13.55
2022-12-03T14:51:37.923Z,14.18
2022-12-03T14:54:45.822Z,13.52
2022-12-03T14:57:52.242Z,13.95
2022-12-03T15:01:06.564Z,14.07
2022-12-03T15:04:12.962Z,13.93
2022-12-03T15:07:21.172Z,13.30
2022-12-03T15:10:26.285Z,14.38
2022-12-03T15:13:34.906Z,12.68
2022-12-03T15:16:43.057Z,15.10
2022-12-03T15:19:56.650Z,14.20
2022-12-03T15:26:09.647Z,14.98
2022-12-03T15:29:17.292Z,14.95
2022-12-03T15:32:25.844Z,14.82
2022-12-03T15:35:38.361Z,16.05
2022-12-03T15:38:45.167Z,14.88
2022-12-03T15:41:50.942Z,15.43
2022-12-03T15:44:57.680Z,16.85
2022-12-03T15:48:07.240Z,18.48
2022-12-03T15:51:20.428Z,16.70
2022-12-03T15:54:25.697Z,17.38
2022-12-03T15:57:32.533Z,15.20
2022-12-03T16:00:37.482Z,15.23
2022-12-03T16:03:47.610Z,15.68
2022-12-03T16:06:52.864Z,13.88
2022-12-03T16:09:58.678Z,14.52
2022-12-03T16:13:03.781Z,19.27
2022-12-03T16:16:12.743Z,15.88
2022-12-03T16:19:21.276Z,15.35
2022-12-03T16:22:30.432Z,17.77
2022-12-03T16:25:36.012Z,15.60
2022-12-03T16:28:45.289Z,21.20
2022-12-03T16:31:51.002Z,20.75
2022-12-03T16:35:01.383Z,17.40
2022-12-03T16:38:07.688Z,15.45
2022-12-03T16:41:13.202Z,13.63
2022-12-03T16:44:32.401Z,14.30
2022-12-03T16:47:39.095Z,16.67
2022-12-03T16:50:48.269Z,15.15
2022-12-03T16:53:55.707Z,15.02
2022-12-03T16:57:06.765Z,16.67
2022-12-03T17:00:18.208Z,15.38
2022-12-03T17:03:33.612Z,14.60
2022-12-03T17:06:42.468Z,14.23
2022-12-03T17:09:55.047Z,15.95
2022-12-03T17:13:09.474Z,15.52
2022-12-03T17:16:15.396Z,17.90
2022-12-03T17:19:23.822Z,17.95
2022-12-03T17:22:31.779Z,14.00
2022-12-03T17:25:45.141Z,14.02
2022-12-03T17:28:50.730Z,14.87
2022-12-03T17:32:07.536Z,16.40
2022-12-03T17:35:13.926Z,13.98
2022-12-03T17:38:24.601Z,15.15
2022-12-03T17:41:30.549Z,16.17
2022-12-03T17:44:36.860Z,15.20
2022-12-03T17:47:42.449Z,12.80
2022-12-03T17:50:50.969Z,14.98
2022-12-03T17:53:59.377Z,15.75
2022-12-03T17:57:05.519Z,15.07
2022-12-03T18:00:11.656Z,15.93
2022-12-03T18:03:16.933Z,16.35
2022-12-03T18:06:26.588Z,16.08
2022-12-03T18:09:35.845Z,16.42
2022-12-03T18:12:41.733Z,15.57
2022-12-03T18:15:52.271Z,14.50
2022-12-03T18:19:02.037Z,16.27
2022-12-03T18:22:15.141Z,19.08
2022-12-03T18:25:24.956Z,16.08
2022-12-03T18:28:32.954Z,15.98
2022-12-03T18:31:38.064Z,17.70
2022-12-03T18:34:48.341Z,19.02
2022-12-03T18:37:55.965Z,17.10
2022-12-03T18:41:04.026Z,15.65
2022-12-03T18:44:13.170Z,16.90
2022-12-03T18:47:22.045Z,15.88
2022-12-03T18:50:28.520Z,15.93
2022-12-03T18:53:37.795Z,14.32
2022-12-03T18:56:48.825Z,16.92
2022-12-03T18:59:54.482Z,15.05
2022-12-03T19:03:04.424Z,17.48
2022-12-03T19:06:17.224Z,16.85
2022-12-03T19:09:24.238Z,15.88
2022-12-03T19:12:39.127Z,15.13
2022-12-03T19:15:46.478Z,15.75
2022-12-03T19:18:53.252Z,16.65
2022-12-03T19:21:58.637Z,16.73
2022-12-03T19:25:04.741Z,16.75
2022-12-03T19:28:14.177Z,16.70
2022-12-03T19:31:22.087Z,15.83
2022-12-03T19:34:29.834Z,16.42
2022-12-03T19:37:37.519Z,17.92
2022-12-03T19:44:00.122Z,15.73
2022-12-03T19:47:05.689Z,16.60
2022-12-03T19:50:22.367Z,16.52
2022-12-03T19:53:28.306Z,17.25
2022-12-03T19:56:35.743Z,16.50
2022-12-03T19:59:45.964Z,16.67
2022-12-03T20:02:53.395Z,18.17
2022-12-03T20:06:04.014Z,17.17
2022-12-03T20:09:11.529Z,17.70
2022-12-03T20:12:22.335Z,17.58
2022-12-03T20:15:31.788Z,16.73
2022-12-03T20:18:40.508Z,15.60
2022-12-03T20:21:46.683Z,18.92
2022-12-03T20:24:56.904Z,16.50
2022-12-03T20:28:03.172Z,19.55
2022-12-03T20:31:13.588Z,16.67
2022-12-03T20:34:23.172Z,19.38
2022-12-03T20:37:30.285Z,16.17
2022-12-03T20:40:39.180Z,17.52
2022-12-03T20:43:44.556Z,17.15
2022-12-03T20:46:55.276Z,18.15
2022-12-03T20:50:03.214Z,18.85
2022-12-03T20:53:24.415Z,18.70
2022-12-03T20:56:36.880Z,15.20
2022-12-03T20:59:42.595Z,15.25
2022-12-03T21:02:51.174Z,18.83
2022-12-03T21:06:02.405Z,19.05
2022-12-03T21:09:15.826Z,13.63
2022-12-03T21:12:23.128Z,17.02
2022-12-03T21:15:28.605Z,18.17
2022-12-03T21:18:49.930Z,18.70
2022-12-03T21:21:55.969Z,18.38
2022-12-03T21:25:05.814Z,17.90
2022-12-03T21:28:14.332Z,20.73
2022-12-03T21:31:22.809Z,18.67
2022-12-03T21:34:36.443Z,18.80
2022-12-03T21:40:48.757Z,19.48
2022-12-03T21:43:54.577Z,19.35
2022-12-03T21:47:09.454Z,19.73
2022-12-03T21:50:24.305Z,19.08
2022-12-03T21:53:29.733Z,20.20
2022-12-03T21:56:35.294Z,19.33
2022-12-03T21:59:47.784Z,19.70
2022-12-03T22:02:55.587Z,18.40
2022-12-03T22:06:03.728Z,19.63
2022-12-03T22:09:15.363Z,18.85
2022-12-03T22:12:21.680Z,21.08
2022-12-03T22:15:27.250Z,22.40
2022-12-03T22:18:34.049Z,20.38
2022-12-03T22:21:48.370Z,19.35
2022-12-03T22:24:54.970Z,22.05
2022-12-03T22:28:13.006Z,19.10
2022-12-03T22:31:21.248Z,21.23
2022-12-03T22:34:30.781Z,20.10
2022-12-03T22:37:39.200Z,22.23
2022-12-03T22:41:06.676Z,21.27
2022-12-03T22:44:12.783Z,21.65
2022-12-03T22:47:22.216Z,20.60
2022-12-03T22:50:31.896Z,19.90
2022-12-03T22:53:39.840Z,19.95
2022-12-03T22:56:48.163Z,19.42
2022-12-03T22:59:53.394Z,21.95
2022-12-03T23:03:00.260Z,21.23
2022-12-03T23:06:14.704Z,23.80
2022-12-03T23:09:25.193Z,22.02
2022-12-03T23:12:30.854Z,21.85
2022-12-03T23:15:50.138Z,21.00
2022-12-03T23:18:55.932Z,21.38
2022-12-03T23:22:03.916Z,21.38
2022-12-03T23:25:12.366Z,22.08
2022-12-03T23:28:17.789Z,20.98
2022-12-03T23:31:24.118Z,22.13
2022-12-03T23:34:30.101Z,22.27
2022-12-03T23:37:37.710Z,21.80
2022-12-03T23:40:48.384Z,21.33
2022-12-03T23:43:54.061Z,23.45
2022-12-03T23:47:03.466Z,21.60
2022-12-03T23:50:12.294Z,22.63
2022-12-03T23:53:18.839Z,23.25
2022-12-03T23:56:29.276Z,21.73
2022-12-03T23:59:36.748Z,21.90
